Time;durP1;ratioP1;P1;durP2;ratioP2;P2;SDS_P1;SDS_P2;PMS_P1;PMS_P2;Temp;Humidity;BMP_temperature;BMP_pressure;BME280_temperature;BME280_humidity;BME280_pressure;Samples;Min_cycle;Max_cycle;Signal;HPM_P1;HPM_P2
2023/08/09 00:00:19;;;;;;;3.70;1.30;;;;;;;14.26;97.30;100402.62;106757;1257;60743;-72
2023/08/09 00:02:46;;;;;;;2.40;1.20;;;;;;;14.24;97.61;100400.04;107421;1260;61237;-74
2023/08/09 00:05:13;;;;;;;2.90;1.40;;;;;;;14.24;97.67;100396.30;107283;1258;72822;-72
2023/08/09 00:07:40;;;;;;;2.10;1.30;;;;;;;14.22;97.78;100399.86;106780;1261;71185;-73
2023/08/09 00:10:07;;;;;;;2.50;1.20;;;;;;;14.20;97.94;100397.90;107178;1257;70893;-73
2023/08/09 00:12:33;;;;;;;3.50;1.20;;;;;;;14.18;98.22;100398.64;107025;1262;63007;-74
2023/08/09 00:15:00;;;;;;;3.50;1.50;;;;;;;14.18;98.25;100392.73;107224;1257;61366;-71
2023/08/09 00:17:27;;;;;;;4.00;1.60;;;;;;;14.16;98.29;100389.73;106819;1262;73513;-74
2023/08/09 00:19:54;;;;;;;3.30;1.40;;;;;;;14.15;98.24;100382.59;107221;1263;70364;-72
2023/08/09 00:22:21;;;;;;;2.70;1.20;;;;;;;14.15;98.25;100377.86;106662;1258;72810;-72
2023/08/09 00:24:48;;;;;;;2.40;1.30;;;;;;;14.14;98.14;100374.22;107504;1257;61285;-72
2023/08/09 00:27:15;;;;;;;3.20;1.20;;;;;;;14.14;98.02;100372.70;107079;1260;59286;-72
2023/08/09 00:29:41;;;;;;;2.60;1.20;;;;;;;14.13;97.86;100374.63;107181;1257;61305;-72
2023/08/09 00:32:08;;;;;;;4.10;1.30;;;;;;;14.12;97.87;100378.62;107123;1256;69042;-73
2023/08/09 00:34:35;;;;;;;2.40;1.20;;;;;;;14.11;97.60;100377.14;106818;1257;61362;-72
2023/08/09 00:37:01;;;;;;;1.80;1.00;;;;;;;14.09;97.50;100376.11;107110;1257;62015;-73
2023/08/09 00:39:30;;;;;;;2.50;1.10;;;;;;;14.06;97.42;100371.92;107156;1257;61250;-73
2023/08/09 00:41:56;;;;;;;2.00;1.00;;;;;;;14.05;97.32;100368.89;106990;1257;74403;-72
2023/08/09 00:44:23;;;;;;;2.80;1.00;;;;;;;14.02;97.07;100378.69;107253;1257;71934;-71
2023/08/09 00:46:50;;;;;;;2.10;0.90;;;;;;;14.01;97.11;100382.68;107217;1257;72497;-72
2023/08/09 00:49:17;;;;;;;2.60;1.10;;;;;;;14.01;97.12;100385.30;107071;1256;61276;-72
2023/08/09 00:51:45;;;;;;;1.30;0.90;;;;;;;14.00;97.27;100390.35;107029;1257;62456;-72
2023/08/09 00:54:11;;;;;;;3.70;1.10;;;;;;;13.98;97.02;100385.67;107242;1257;74550;-73
2023/08/09 00:56:38;;;;;;;3.60;1.20;;;;;;;13.98;97.22;100390.65;107371;1257;69936;-73
2023/08/09 00:59:05;;;;;;;2.00;1.00;;;;;;;13.96;97.29;100392.36;107207;1258;73257;-73
2023/08/09 01:01:32;;;;;;;2.60;1.10;;;;;;;13.93;97.04;100385.55;106904;1257;61283;-72
2023/08/09 01:03:59;;;;;;;3.00;1.10;;;;;;;13.92;97.10;100385.99;107104;1257;61230;-76
2023/08/09 01:06:37;;;;;;;2.50;1.10;;;;;;;13.90;97.03;100380.48;106870;1256;73320;-72
2023/08/09 01:09:06;;;;;;;3.70;1.20;;;;;;;13.87;97.08;100381.85;107445;1257;69968;-73
2023/08/09 01:11:44;;;;;;;3.50;1.50;;;;;;;13.84;97.08;100380.65;106887;1260;72788;-72
2023/08/09 01:14:12;;;;;;;3.20;1.30;;;;;;;13.82;97.12;100371.05;107039;1256;61400;-72
2023/08/09 01:16:39;;;;;;;1.90;1.00;;;;;;;13.80;97.28;100366.67;107381;1257;59424;-73
2023/08/09 01:19:22;;;;;;;2.90;1.20;;;;;;;13.77;97.20;100374.75;106861;1257;73456;-72
2023/08/09 01:21:49;;;;;;;2.90;1.20;;;;;;;13.74;97.33;100374.92;106903;1257;69926;-72
2023/08/09 01:24:17;;;;;;;2.20;1.10;;;;;;;13.71;97.48;100373.52;107647;1256;71865;-73
2023/08/09 01:26:44;;;;;;;1.90;1.10;;;;;;;13.71;97.37;100374.70;107069;1257;61672;-72
2023/08/09 01:29:10;;;;;;;2.20;1.10;;;;;;;13.68;97.38;100377.88;107313;1258;61254;-72
2023/08/09 01:31:37;;;;;;;1.80;1.00;;;;;;;13.65;97.48;100380.35;107069;1257;74034;-73
2023/08/09 01:34:04;;;;;;;3.50;1.10;;;;;;;13.62;97.30;100382.56;107553;1258;71141;-75
2023/08/09 01:36:34;;;;;;;4.50;1.60;;;;;;;13.60;97.47;100386.61;106984;1258;72061;-74
2023/08/09 01:39:07;;;;;;;2.30;1.00;;;;;;;13.57;97.45;100384.15;106796;1257;62070;-74
2023/08/09 01:41:35;;;;;;;1.90;1.10;;;;;;;13.54;97.42;100386.70;107455;1257;61198;-72
2023/08/09 01:44:04;;;;;;;2.40;1.10;;;;;;;13.50;97.56;100396.19;106904;1257;74798;-73
2023/08/09 01:46:31;;;;;;;3.60;1.20;;;;;;;13.48;97.62;100405.13;107439;1257;71454;-73
2023/08/09 01:49:12;;;;;;;2.90;1.00;;;;;;;13.45;97.75;100411.23;107125;1256;72844;-72
2023/08/09 01:51:40;;;;;;;3.20;1.00;;;;;;;13.41;97.88;100418.55;107126;1257;61885;-72
2023/08/09 01:54:07;;;;;;;2.40;1.30;;;;;;;13.37;98.20;100423.83;107673;1257;59772;-72
2023/08/09 01:56:35;;;;;;;2.00;1.10;;;;;;;13.35;98.26;100425.95;108094;1260;73985;-72
2023/08/09 01:59:04;;;;;;;2.40;1.30;;;;;;;13.30;98.15;100420.73;107052;1257;71376;-72
2023/08/09 02:01:31;;;;;;;2.20;1.20;;;;;;;13.25;98.12;100421.24;107174;1258;71530;-71
2023/08/09 02:03:58;;;;;;;1.90;1.20;;;;;;;13.19;98.37;100418.48;106994;1257;61126;-73
2023/08/09 02:06:25;;;;;;;2.60;1.10;;;;;;;13.13;98.66;100419.06;107127;1257;61288;-71
2023/08/09 02:08:51;;;;;;;4.20;1.30;;;;;;;13.08;98.72;100414.42;107090;1257;73462;-72
2023/08/09 02:11:18;;;;;;;4.00;1.30;;;;;;;13.03;98.95;100417.02;107597;1258;69023;-72
2023/08/09 02:13:45;;;;;;;2.60;1.40;;;;;;;12.97;99.15;100415.44;107264;1256;71208;-72
2023/08/09 02:16:12;;;;;;;2.80;1.60;;;;;;;12.92;99.01;100409.06;106910;1257;62032;-73
2023/08/09 02:18:39;;;;;;;2.20;1.30;;;;;;;12.86;99.24;100410.38;107531;1257;59375;-74
2023/08/09 02:21:05;;;;;;;2.50;1.40;;;;;;;12.80;99.44;100407.04;107060;1256;73481;-73
2023/08/09 02:23:32;;;;;;;3.70;1.80;;;;;;;12.73;99.76;100405.27;107328;1256;61213;-73
2023/08/09 02:25:59;;;;;;;2.70;1.30;;;;;;;12.66;99.94;100406.49;107062;1257;71279;-73
2023/08/09 02:28:25;;;;;;;3.40;1.40;;;;;;;12.59;100.00;100408.39;107509;1258;61272;-72
2023/08/09 02:30:53;;;;;;;3.20;1.50;;;;;;;12.53;100.00;100406.38;107064;1256;59792;-73
2023/08/09 02:33:20;;;;;;;3.30;1.80;;;;;;;12.47;100.00;100405.80;106665;1256;74444;-73
2023/08/09 02:35:58;;;;;;;3.90;1.70;;;;;;;12.40;100.00;100406.04;106917;1257;69536;-74
2023/08/09 02:38:27;;;;;;;2.60;1.60;;;;;;;12.35;100.00;100409.23;107028;1257;70656;-72
2023/08/09 02:40:54;;;;;;;2.80;1.60;;;;;;;12.30;100.00;100407.00;107259;1256;61129;-73
2023/08/09 02:43:25;;;;;;;4.90;1.70;;;;;;;12.26;100.00;100412.48;107377;1257;61286;-73
2023/08/09 02:45:53;;;;;;;5.80;1.80;;;;;;;12.20;100.00;100415.39;107312;1257;73568;-73
2023/08/09 02:48:21;;;;;;;3.40;1.80;;;;;;;12.17;100.00;100413.32;106765;1256;70886;-72
2023/08/09 02:50:48;;;;;;;3.90;1.60;;;;;;;12.15;100.00;100420.88;106803;1257;70750;-72
2023/08/09 02:53:15;;;;;;;5.50;1.80;;;;;;;12.13;100.00;100416.68;107064;1257;61411;-72
2023/08/09 02:55:43;;;;;;;4.20;1.80;;;;;;;12.09;100.00;100420.78;107276;1256;60509;-73
2023/08/09 02:58:10;;;;;;;6.10;2.40;;;;;;;12.05;100.00;100423.70;106836;1257;73559;-72
2023/08/09 03:00:37;;;;;;;4.60;1.80;;;;;;;12.02;100.00;100427.63;106901;1257;71227;-72
2023/08/09 03:03:04;;;;;;;3.10;1.80;;;;;;;11.99;100.00;100430.88;107046;1256;72244;-72
2023/08/09 03:05:31;;;;;;;4.60;2.00;;;;;;;11.97;100.00;100431.44;107578;1256;61358;-71
2023/08/09 03:07:59;;;;;;;5.00;1.80;;;;;;;11.96;100.00;100438.00;107010;1256;61260;-72
2023/08/09 03:10:26;;;;;;;6.40;1.90;;;;;;;11.95;100.00;100438.00;106908;1256;74560;-73
2023/08/09 03:12:53;;;;;;;3.70;2.00;;;;;;;11.94;100.00;100438.40;107359;1261;70243;-72
2023/08/09 03:15:21;;;;;;;3.50;1.90;;;;;;;11.93;100.00;100442.02;107240;1256;72250;-72
2023/08/09 03:17:48;;;;;;;5.00;1.90;;;;;;;11.93;100.00;100440.40;106893;1257;61141;-72
2023/08/09 03:20:16;;;;;;;4.00;2.10;;;;;;;11.90;100.00;100439.75;107174;1258;61362;-72
2023/08/09 03:22:45;;;;;;;4.30;2.10;;;;;;;11.89;100.00;100442.20;107549;1256;73776;-73
2023/08/09 03:25:12;;;;;;;3.30;2.10;;;;;;;11.87;100.00;100445.66;106945;1257;71559;-71
2023/08/09 03:27:39;;;;;;;3.50;2.40;;;;;;;11.86;100.00;100448.42;106789;1257;72693;-72
2023/08/09 03:30:08;;;;;;;6.20;2.40;;;;;;;11.85;100.00;100451.15;107077;1257;61253;-72
2023/08/09 03:32:36;;;;;;;4.20;2.50;;;;;;;11.83;100.00;100451.79;106826;1257;61347;-71
2023/08/09 03:35:04;;;;;;;4.80;2.70;;;;;;;11.82;100.00;100456.16;107158;1256;73702;-72
2023/08/09 03:37:31;;;;;;;3.60;2.40;;;;;;;11.80;100.00;100456.18;107190;1258;71590;-72
2023/08/09 03:39:58;;;;;;;4.30;2.10;;;;;;;11.79;100.00;100461.82;107397;1260;72682;-72
2023/08/09 03:42:25;;;;;;;3.70;2.30;;;;;;;11.78;100.00;100462.98;107081;1256;61363;-74
2023/08/09 03:44:52;;;;;;;5.10;2.50;;;;;;;11.79;100.00;100468.72;106773;1257;61152;-71
2023/08/09 03:47:18;;;;;;;5.30;2.80;;;;;;;11.79;100.00;100472.38;106735;1259;75416;-73
2023/08/09 03:49:45;;;;;;;6.10;2.80;;;;;;;11.81;100.00;100475.40;107185;1256;70866;-73
2023/08/09 03:52:12;;;;;;;4.70;2.80;;;;;;;11.82;100.00;100479.70;107025;1257;70719;-73
2023/08/09 03:54:39;;;;;;;5.00;2.70;;;;;;;11.82;100.00;100483.92;107176;1256;62033;-72
2023/08/09 03:57:06;;;;;;;5.10;3.00;;;;;;;11.83;100.00;100487.48;107334;1256;61228;-73
2023/08/09 03:59:33;;;;;;;6.70;3.00;;;;;;;11.84;100.00;100489.86;107123;1256;74921;-72
2023/08/09 04:02:00;;;;;;;5.70;3.20;;;;;;;11.85;100.00;100489.79;107140;1256;72411;-72
2023/08/09 04:04:27;;;;;;;6.40;2.90;;;;;;;11.88;100.00;100495.78;106825;1257;73435;-72
2023/08/09 04:06:55;;;;;;;4.90;2.60;;;;;;;11.91;100.00;100495.01;106689;1256;62198;-74
2023/08/09 04:09:22;;;;;;;6.10;2.90;;;;;;;11.94;100.00;100498.50;107214;1257;59125;-73
2023/08/09 04:11:48;;;;;;;6.00;3.40;;;;;;;11.95;100.00;100499.47;107228;1256;73518;-73
2023/08/09 04:14:15;;;;;;;6.30;3.30;;;;;;;11.96;100.00;100502.79;107140;1258;71204;-71
2023/08/09 04:16:42;;;;;;;6.70;3.20;;;;;;;11.96;100.00;100502.83;106850;1257;71521;-72
2023/08/09 04:19:08;;;;;;;6.60;3.30;;;;;;;11.98;100.00;100506.16;106983;1257;61355;-71
2023/08/09 04:21:35;;;;;;;5.90;3.30;;;;;;;11.99;100.00;100509.89;106897;1256;61611;-71
2023/08/09 04:24:02;;;;;;;7.80;3.70;;;;;;;12.02;100.00;100514.63;106937;1256;73888;-72
2023/08/09 04:26:29;;;;;;;5.80;3.80;;;;;;;12.06;100.00;100511.20;106959;1256;69938;-71
2023/08/09 04:28:56;;;;;;;7.20;3.80;;;;;;;12.11;100.00;100516.89;107342;1256;72404;-72
2023/08/09 04:31:22;;;;;;;5.90;3.50;;;;;;;12.15;100.00;100519.63;107139;1256;60324;-71
2023/08/09 04:33:51;;;;;;;8.70;4.00;;;;;;;12.20;100.00;100521.11;107757;1257;61163;-72
2023/08/09 04:36:18;;;;;;;6.10;3.70;;;;;;;12.24;100.00;100521.88;106811;1257;72499;-72
2023/08/09 04:38:45;;;;;;;7.00;3.90;;;;;;;12.28;100.00;100527.68;106774;1256;69937;-73
2023/08/09 04:41:12;;;;;;;5.40;3.60;;;;;;;12.31;100.00;100532.02;106970;1256;72963;-72
2023/08/09 04:43:44;;;;;;;6.80;4.00;;;;;;;12.34;100.00;100533.67;106927;1257;60861;-72
2023/08/09 04:46:12;;;;;;;8.00;3.90;;;;;;;12.37;100.00;100535.91;107415;1256;61273;-73
2023/08/09 04:48:40;;;;;;;6.40;3.80;;;;;;;12.40;100.00;100530.63;106909;1257;74744;-73
2023/08/09 04:51:08;;;;;;;6.90;4.10;;;;;;;12.42;100.00;100527.95;107379;1256;270845;-74
2023/08/09 04:53:36;;;;;;;6.80;4.00;;;;;;;12.46;100.00;100530.59;107801;1256;71595;-72
2023/08/09 04:56:04;;;;;;;6.90;4.20;;;;;;;12.48;100.00;100530.69;107725;1256;61137;-72
2023/08/09 04:58:31;;;;;;;10.00;4.50;;;;;;;12.50;100.00;100533.25;107167;1256;59307;-73
2023/08/09 05:00:58;;;;;;;7.70;4.20;;;;;;;12.50;100.00;100535.30;106460;1262;74681;-73
2023/08/09 05:03:25;;;;;;;6.90;4.50;;;;;;;12.52;100.00;100534.54;106223;1256;69712;-72
2023/08/09 05:05:52;;;;;;;6.00;4.50;;;;;;;12.55;100.00;100531.69;106818;1256;72756;-75
2023/08/09 05:08:19;;;;;;;7.50;4.30;;;;;;;12.57;100.00;100539.81;107049;1256;62138;-73
2023/08/09 05:10:45;;;;;;;8.40;4.70;;;;;;;12.58;100.00;100536.43;106270;1259;61256;-73
2023/08/09 05:13:12;;;;;;;7.40;4.50;;;;;;;12.63;100.00;100547.36;106496;1256;73634;-73
2023/08/09 05:15:39;;;;;;;8.30;4.70;;;;;;;12.67;100.00;100549.77;106272;1256;70346;-74
2023/08/09 05:18:06;;;;;;;8.80;4.60;;;;;;;12.71;100.00;100550.09;106542;1256;71529;-73
2023/08/09 05:20:33;;;;;;;8.10;4.90;;;;;;;12.75;100.00;100556.05;106043;1256;61597;-72
2023/08/09 05:23:00;;;;;;;7.00;4.60;;;;;;;12.81;100.00;100559.02;106964;1260;61382;-73
2023/08/09 05:25:27;;;;;;;9.40;4.40;;;;;;;12.84;100.00;100560.52;105996;1262;74676;-73
2023/08/09 05:27:53;;;;;;;8.80;5.20;;;;;;;12.89;100.00;100563.45;107103;1256;61163;-75
2023/08/09 05:30:20;;;;;;;7.20;4.40;;;;;;;12.95;100.00;100559.81;106647;1260;71423;-74
2023/08/09 05:32:47;;;;;;;7.50;4.80;;;;;;;13.02;100.00;100563.75;106172;1257;61369;-73
2023/08/09 05:35:14;;;;;;;7.80;5.00;;;;;;;13.10;100.00;100566.55;106077;1256;61220;-73
2023/08/09 05:37:41;;;;;;;8.50;4.80;;;;;;;13.18;100.00;100567.59;106270;1256;73450;-74
2023/08/09 05:40:09;;;;;;;6.60;4.30;;;;;;;13.26;100.00;100565.23;106339;1256;71244;-74
2023/08/09 05:42:36;;;;;;;6.40;4.50;;;;;;;13.34;100.00;100569.19;106744;1256;70579;-73
2023/08/09 05:45:04;;;;;;;7.70;4.00;;;;;;;13.41;100.00;100568.09;107061;1256;61247;-73
2023/08/09 05:47:30;;;;;;;5.70;3.80;;;;;;;13.48;100.00;100572.80;107001;1256;60685;-72
2023/08/09 05:49:58;;;;;;;6.50;3.70;;;;;;;13.54;100.00;100572.83;106694;1256;74748;-74
2023/08/09 05:52:24;;;;;;;5.70;3.30;;;;;;;13.60;100.00;100576.27;106217;1257;71702;-74
2023/08/09 05:54:52;;;;;;;9.50;4.40;;;;;;;13.67;100.00;100576.70;105989;1256;72398;-74
2023/08/09 05:57:19;;;;;;;4.40;3.30;;;;;;;13.78;100.00;100578.48;106328;1256;61465;-72
2023/08/09 05:59:46;;;;;;;6.40;3.20;;;;;;;13.85;100.00;100578.80;108036;1256;60091;-74
2023/08/09 06:02:13;;;;;;;5.90;3.20;;;;;;;13.96;100.00;100583.80;108821;1256;73353;-73
2023/08/09 06:04:40;;;;;;;5.80;3.40;;;;;;;14.04;100.00;100589.73;107547;1256;69690;-72
2023/08/09 06:07:07;;;;;;;5.90;3.10;;;;;;;14.13;100.00;100596.11;106938;1257;73260;-71
2023/08/09 06:09:33;;;;;;;6.00;3.30;;;;;;;14.20;100.00;100592.85;106627;1256;62495;-72
2023/08/09 06:12:04;;;;;;;4.30;2.90;;;;;;;14.31;100.00;100601.23;106397;1256;61152;-72
2023/08/09 06:14:32;;;;;;;5.40;3.00;;;;;;;14.35;99.53;100606.20;106290;1259;74543;-71
2023/08/09 06:16:59;;;;;;;3.90;2.70;;;;;;;14.42;98.54;100603.75;106630;1257;71702;-72
2023/08/09 06:19:26;;;;;;;4.40;2.40;;;;;;;14.44;97.06;100612.21;106653;1259;72796;-73
2023/08/09 06:21:53;;;;;;;5.80;3.00;;;;;;;14.48;96.61;100610.06;107393;1256;60885;-74
2023/08/09 06:24:20;;;;;;;4.10;2.60;;;;;;;14.57;96.88;100607.82;108414;1256;61385;-75
2023/08/09 06:26:47;;;;;;;7.80;2.60;;;;;;;14.65;95.88;100609.98;108845;1256;74810;-73
2023/08/09 06:29:14;;;;;;;4.90;2.30;;;;;;;14.74;95.45;100609.81;109076;1256;71648;-73
2023/08/09 06:31:40;;;;;;;4.70;2.30;;;;;;;14.81;94.37;100618.66;108885;1256;72689;-77
2023/08/09 06:34:08;;;;;;;5.90;2.20;;;;;;;14.87;93.00;100617.59;108845;1256;60747;-74
2023/08/09 06:36:34;;;;;;;3.30;2.00;;;;;;;14.96;92.42;100622.08;108963;1256;59343;-71
2023/08/09 06:39:01;;;;;;;5.20;2.00;;;;;;;15.05;92.18;100622.96;108948;1256;74654;-72
2023/08/09 06:41:28;;;;;;;4.70;1.90;;;;;;;15.11;90.53;100632.30;107525;1256;71226;-75
2023/08/09 06:43:55;;;;;;;4.70;1.90;;;;;;;15.21;90.81;100623.98;108370;1256;72722;-77
2023/08/09 06:46:21;;;;;;;4.20;1.90;;;;;;;15.32;90.06;100631.13;107283;1256;60478;-73
2023/08/09 06:48:48;;;;;;;4.80;1.80;;;;;;;15.43;89.68;100629.80;106017;1256;61671;-73
2023/08/09 06:51:15;;;;;;;3.50;1.90;;;;;;;15.53;88.73;100635.63;106548;1256;74420;-72
2023/08/09 06:53:42;;;;;;;3.60;1.50;;;;;;;15.60;87.78;100642.97;107811;1256;69968;-74
2023/08/09 06:56:09;;;;;;;3.90;1.40;;;;;;;15.68;87.52;100644.50;106495;1256;73014;-73
2023/08/09 06:58:35;;;;;;;4.80;1.70;;;;;;;15.70;85.73;100650.35;107038;1257;59188;-72
2023/08/09 07:01:03;;;;;;;5.70;1.90;;;;;;;15.74;85.69;100657.48;107218;1258;61611;-72
2023/08/09 07:03:30;;;;;;;6.80;1.80;;;;;;;15.80;85.51;100662.08;106282;1256;73135;-73
2023/08/09 07:05:57;;;;;;;4.10;1.60;;;;;;;15.88;84.61;100667.98;106683;1260;70456;-72
2023/08/09 07:08:24;;;;;;;3.10;1.30;;;;;;;15.86;82.59;100668.77;106302;1256;72273;-72
2023/08/09 07:10:51;;;;;;;4.20;1.40;;;;;;;15.88;82.96;100666.95;106122;1256;61510;-73
2023/08/09 07:13:18;;;;;;;3.00;1.50;;;;;;;15.96;83.07;100673.66;106242;1258;61260;-72
2023/08/09 07:15:45;;;;;;;3.70;1.50;;;;;;;16.00;83.08;100672.84;107010;1256;73560;-72
2023/08/09 07:18:11;;;;;;;3.90;1.50;;;;;;;16.11;83.63;100674.69;107121;1257;71699;-73
2023/08/09 07:20:38;;;;;;;4.40;1.40;;;;;;;16.18;82.07;100681.95;106531;1256;72872;-73
2023/08/09 07:23:05;;;;;;;5.00;1.40;;;;;;;16.17;81.38;100686.57;106619;1259;61321;-71
2023/08/09 07:25:32;;;;;;;3.30;1.20;;;;;;;16.19;80.89;100684.05;106437;1257;61286;-72
2023/08/09 07:28:00;;;;;;;4.60;1.50;;;;;;;16.23;80.69;100689.25;106326;1256;73544;-74
2023/08/09 07:30:27;;;;;;;3.60;1.30;;;;;;;16.32;81.13;100686.42;106543;1256;71258;-72
2023/08/09 07:32:53;;;;;;;3.40;1.40;;;;;;;16.41;81.00;100680.78;106895;1255;71460;-71
2023/08/09 07:35:20;;;;;;;3.30;1.20;;;;;;;16.46;79.81;100687.02;107132;1256;61398;-73
2023/08/09 07:37:47;;;;;;;2.90;1.30;;;;;;;16.50;79.50;100689.38;106364;1256;60391;-72
2023/08/09 07:40:14;;;;;;;3.70;1.30;;;;;;;16.54;78.04;100689.70;106378;1257;73485;-73
2023/08/09 07:42:42;;;;;;;6.10;1.60;;;;;;;16.57;77.65;100694.73;106357;1256;71193;-72
2023/08/09 07:45:10;;;;;;;2.70;1.00;;;;;;;16.63;78.12;100689.23;106296;1259;71258;-72
2023/08/09 07:47:37;;;;;;;4.40;1.20;;;;;;;16.71;77.37;100694.09;105987;1256;62029;-72
2023/08/09 07:50:05;;;;;;;2.80;1.10;;;;;;;16.79;78.30;100694.80;106740;1256;61360;-72
2023/08/09 07:52:32;;;;;;;3.50;1.40;;;;;;;16.88;77.62;100703.66;107713;1256;74674;-73
2023/08/09 07:54:59;;;;;;;4.30;1.10;;;;;;;16.90;76.00;100706.41;106627;1256;71605;-78
2023/08/09 07:57:26;;;;;;;3.00;1.20;;;;;;;16.91;75.70;100707.30;106567;1257;72739;-72
2023/08/09 07:59:53;;;;;;;3.60;1.20;;;;;;;16.97;75.02;100705.33;106383;1256;61286;-73
2023/08/09 08:02:28;;;;;;;4.80;1.30;;;;;;;17.05;75.26;100709.35;106465;1257;61358;-72
2023/08/09 08:04:55;;;;;;;3.80;1.20;;;;;;;17.13;75.87;100702.60;106144;1257;73493;-74
2023/08/09 08:07:23;;;;;;;4.00;1.10;;;;;;;17.30;75.98;100702.35;106313;1256;69849;-73
2023/08/09 08:09:50;;;;;;;8.20;1.40;;;;;;;17.46;74.69;100707.08;107486;1256;71701;-73
2023/08/09 08:12:16;;;;;;;3.30;1.10;;;;;;;17.52;73.31;100715.36;106941;1262;60888;-73
2023/08/09 08:14:49;;;;;;;4.00;1.30;;;;;;;17.50;73.68;100711.30;106540;1256;61167;-72
2023/08/09 08:17:16;;;;;;;4.00;0.90;;;;;;;17.49;72.57;100721.41;106288;1256;73658;-75
2023/08/09 08:19:43;;;;;;;2.70;0.90;;;;;;;17.45;71.83;100722.23;106443;1256;70076;-73
2023/08/09 08:22:10;;;;;;;5.00;1.20;;;;;;;17.50;71.03;100723.35;106718;1256;72379;-74
2023/08/09 08:24:36;;;;;;;5.00;0.90;;;;;;;17.59;72.02;100722.06;106209;1256;62107;-75
2023/08/09 08:27:04;;;;;;;3.70;1.30;;;;;;;17.69;72.11;100723.74;107324;1256;61293;-74
2023/08/09 08:29:31;;;;;;;3.30;0.90;;;;;;;17.83;71.59;100726.76;107085;1256;74775;-72
2023/08/09 08:31:58;;;;;;;4.00;1.10;;;;;;;17.91;69.99;100723.96;106640;1256;71095;-73
2023/08/09 08:34:31;;;;;;;3.90;0.90;;;;;;;18.07;69.88;100725.32;106409;1260;72449;-72
2023/08/09 08:37:00;;;;;;;3.70;0.90;;;;;;;18.21;69.63;100732.65;106192;1258;61851;-72
2023/08/09 08:39:30;;;;;;;3.50;1.20;;;;;;;18.32;67.11;100731.77;106368;1256;61244;-72
2023/08/09 08:41:57;;;;;;;3.60;1.00;;;;;;;18.45;66.05;100733.55;106592;1256;73116;-77
2023/08/09 08:44:25;;;;;;;2.30;1.20;;;;;;;18.52;64.87;100739.20;107146;1256;70022;-74
2023/08/09 08:46:51;;;;;;;4.30;0.70;;;;;;;18.54;64.91;100735.70;107426;1256;71004;-73
2023/08/09 08:49:23;;;;;;;2.40;0.80;;;;;;;18.67;65.54;100745.44;106435;1256;62206;-72
2023/08/09 08:51:54;;;;;;;6.10;1.10;;;;;;;18.71;63.35;100744.90;106226;1256;61262;-72
2023/08/09 08:54:23;;;;;;;3.30;0.80;;;;;;;18.89;63.97;100739.75;106262;1256;74827;-73
2023/08/09 08:56:50;;;;;;;3.40;0.80;;;;;;;19.01;64.13;100738.73;106573;1256;70786;-71
2023/08/09 08:59:17;;;;;;;3.30;0.90;;;;;;;19.01;62.57;100734.25;106010;1256;73601;-73
2023/08/09 09:01:44;;;;;;;3.70;1.00;;;;;;;18.96;61.97;100738.92;107948;1256;60798;-72
2023/08/09 09:04:11;;;;;;;3.10;0.70;;;;;;;18.94;61.93;100740.35;107369;1256;59796;-71
2023/08/09 09:06:37;;;;;;;1.80;0.60;;;;;;;18.97;61.84;100737.53;108960;1256;73145;-75
2023/08/09 09:09:13;;;;;;;2.40;0.70;;;;;;;18.94;60.32;100738.73;106304;1256;69733;-72
2023/08/09 09:11:43;;;;;;;3.10;0.60;;;;;;;18.97;59.42;100733.77;108050;1256;72873;-73
2023/08/09 09:14:13;;;;;;;2.60;0.80;;;;;;;19.10;60.30;100735.40;106413;1256;63736;-72
2023/08/09 09:16:42;;;;;;;3.60;0.80;;;;;;;19.20;60.36;100743.48;106217;1257;61622;-72
2023/08/09 09:19:10;;;;;;;4.70;0.80;;;;;;;19.29;60.96;100740.98;107058;1260;73123;-73
2023/08/09 09:21:40;;;;;;;2.80;0.60;;;;;;;19.26;58.10;100744.45;106717;1256;71682;-73
2023/08/09 09:24:08;;;;;;;4.10;0.90;;;;;;;19.34;58.52;100737.45;106912;1256;71508;-74
2023/08/09 09:26:39;;;;;;;2.50;0.80;;;;;;;19.55;57.82;100744.61;106437;1262;61293;-72
2023/08/09 09:29:09;;;;;;;2.70;0.90;;;;;;;19.70;58.33;100740.55;106361;1256;61168;-72
2023/08/09 09:31:39;;;;;;;2.30;0.70;;;;;;;19.74;58.94;100739.04;106524;1256;73521;-72
2023/08/09 09:34:07;;;;;;;3.30;1.00;;;;;;;19.77;58.55;100736.79;105995;1256;70498;-74
2023/08/09 09:36:39;;;;;;;4.00;0.90;;;;;;;19.88;57.15;100738.29;106449;1260;71235;-71
2023/08/09 09:39:10;;;;;;;2.50;0.60;;;;;;;20.05;57.38;100741.98;107271;1259;59975;-74
2023/08/09 09:41:38;;;;;;;3.30;0.60;;;;;;;20.17;54.07;100745.79;107467;1258;61227;-73
2023/08/09 09:44:05;;;;;;;1.50;0.70;;;;;;;20.28;53.77;100744.98;106537;1256;73894;-74
2023/08/09 09:46:39;;;;;;;2.90;0.60;;;;;;;20.40;52.97;100740.98;106648;1256;71728;-74
2023/08/09 09:49:06;;;;;;;2.60;0.80;;;;;;;20.55;52.49;100751.42;106410;1260;70615;-74
2023/08/09 09:51:34;;;;;;;2.40;0.70;;;;;;;20.74;52.82;100746.14;106726;1257;61283;-73
2023/08/09 09:54:01;;;;;;;1.40;0.50;;;;;;;20.85;51.33;100746.62;106997;1257;61180;-71
2023/08/09 09:56:27;;;;;;;2.10;0.50;;;;;;;20.81;49.77;100746.55;106491;1256;73469;-74
2023/08/09 09:58:54;;;;;;;2.00;0.60;;;;;;;20.85;50.19;100749.03;106659;1260;70058;-74
2023/08/09 10:01:23;;;;;;;2.00;0.50;;;;;;;20.90;50.46;100748.00;106910;1256;71559;-75
2023/08/09 10:03:57;;;;;;;3.10;0.60;;;;;;;20.81;49.29;100757.86;106342;1257;61244;-72
2023/08/09 10:06:28;;;;;;;1.50;0.50;;;;;;;20.54;49.36;100760.25;106691;1263;61321;-73
2023/08/09 10:08:56;;;;;;;2.10;0.60;;;;;;;20.32;49.65;100748.04;106327;1256;73353;-73
2023/08/09 10:11:24;;;;;;;2.00;0.60;;;;;;;20.36;51.04;100751.36;106557;1256;71654;-72
2023/08/09 10:13:54;;;;;;;1.90;0.60;;;;;;;20.55;51.18;100750.97;107112;1256;72790;-76
2023/08/09 10:16:25;;;;;;;3.10;0.90;;;;;;;20.73;51.58;100761.75;106992;1256;61222;-73
2023/08/09 10:19:00;;;;;;;3.20;0.80;;;;;;;20.90;48.50;100760.98;106475;1259;61243;-73
2023/08/09 10:21:27;;;;;;;1.70;0.50;;;;;;;20.85;48.07;100764.50;106411;1256;74070;-72
2023/08/09 10:24:08;;;;;;;2.80;0.60;;;;;;;20.82;49.82;100761.02;106274;1259;70849;-73
2023/08/09 10:26:37;;;;;;;1.70;0.50;;;;;;;20.83;50.08;100771.32;106305;1256;71447;-73
2023/08/09 10:29:12;;;;;;;1.60;0.60;;;;;;;20.71;49.58;100769.81;106367;1258;61279;-72
2023/08/09 10:31:54;;;;;;;1.30;0.60;;;;;;;20.52;49.64;100771.14;106150;1257;61611;-74
2023/08/09 10:34:37;;;;;;;3.50;0.70;;;;;;;20.27;50.58;100774.55;107771;1256;73478;-74
2023/08/09 10:37:05;;;;;;;2.20;0.60;;;;;;;20.04;51.86;100776.48;106543;1256;71252;-75
2023/08/09 10:39:34;;;;;;;2.50;0.70;;;;;;;20.03;51.42;100777.20;106284;1256;73235;-72
2023/08/09 10:42:08;;;;;;;3.30;0.70;;;;;;;20.13;50.30;100770.27;106168;1256;61254;-73
2023/08/09 10:44:50;;;;;;;2.90;0.70;;;;;;;20.34;48.51;100771.85;106469;1256;60560;-72
2023/08/09 10:47:24;;;;;;;3.00;0.60;;;;;;;20.64;47.70;100767.77;106350;1260;74768;-73
2023/08/09 10:49:51;;;;;;;1.80;0.70;;;;;;;21.02;47.88;100780.35;106381;1258;71426;-75
2023/08/09 10:52:20;;;;;;;1.70;0.60;;;;;;;21.27;46.88;100772.16;106824;1256;61351;-72
2023/08/09 10:55:10;;;;;;;2.80;0.50;;;;;;;21.44;46.23;100769.42;107501;1256;61340;-72
2023/08/09 10:57:41;;;;;;;1.80;0.50;;;;;;;21.41;44.71;100780.56;106283;1256;61522;-73
2023/08/09 11:00:12;;;;;;;3.40;0.60;;;;;;;21.24;43.13;100780.52;106211;1262;74706;-72
2023/08/09 11:02:46;;;;;;;1.90;0.50;;;;;;;21.17;43.27;100782.61;106729;1256;69996;-72
2023/08/09 11:05:14;;;;;;;1.80;0.50;;;;;;;21.27;44.43;100778.69;106210;1256;72939;-74
2023/08/09 11:07:44;;;;;;;2.50;0.50;;;;;;;21.46;44.16;100776.97;107150;1259;61372;-73
2023/08/09 11:10:15;;;;;;;2.30;0.70;;;;;;;21.50;44.03;100779.31;106788;1256;61356;-72
2023/08/09 11:12:44;;;;;;;2.00;0.70;;;;;;;21.81;46.11;100776.50;106605;1259;73241;-72
2023/08/09 11:15:12;;;;;;;1.90;0.50;;;;;;;22.00;43.95;100781.74;106466;1257;71445;-72
2023/08/09 11:17:49;;;;;;;1.40;0.60;;;;;;;21.88;43.26;100786.90;106122;1255;72755;-71